createdAt,value
2022-11-15T00:00:00.301Z,887.1
2022-11-15T00:01:00.307Z,887.0
2022-11-15T00:02:00.562Z,887.0
2022-11-15T00:03:00.303Z,887.1
2022-11-15T00:04:00.281Z,887.0
2022-11-15T00:05:00.280Z,887.0
2022-11-15T00:06:00.323Z,887.1
2022-11-15T00:07:00.309Z,887.1
2022-11-15T00:08:00.663Z,887.0
2022-11-15T00:09:00.285Z,887.0
2022-11-15T00:10:00.293Z,887.0
2022-11-15T00:11:00.291Z,887.0
2022-11-15T00:12:00.305Z,887.0
2022-11-15T00:13:00.306Z,887.0
2022-11-15T00:14:00.483Z,887.1
2022-11-15T00:15:00.320Z,887.0
2022-11-15T00:16:00.303Z,887.1
2022-11-15T00:17:00.327Z,887.1
2022-11-15T00:18:00.313Z,887.1
2022-11-15T00:19:00.321Z,887.1
2022-11-15T00:20:00.528Z,887.1
2022-11-15T00:21:00.277Z,887.1
2022-11-15T00:22:00.466Z,887.1
2022-11-15T00:23:00.635Z,887.1
2022-11-15T00:24:00.400Z,887.1
2022-11-15T00:25:00.426Z,887.1
2022-11-15T00:26:00.656Z,887.2
2022-11-15T00:27:00.465Z,887.1
2022-11-15T00:28:00.372Z,887.2
2022-11-15T00:29:00.318Z,887.2
2022-11-15T00:30:00.363Z,887.1
2022-11-15T00:31:00.324Z,887.2
2022-11-15T00:32:00.448Z,887.1
2022-11-15T00:33:00.285Z,887.2
2022-11-15T00:34:00.301Z,887.2
2022-11-15T00:35:00.299Z,887.2
2022-11-15T00:36:00.320Z,887.2
2022-11-15T00:37:00.309Z,887.2
2022-11-15T00:38:00.425Z,887.2
2022-11-15T00:39:00.431Z,887.2
2022-11-15T00:40:00.390Z,887.2
2022-11-15T00:41:02.782Z,887.2
2022-11-15T00:42:00.347Z,887.3
2022-11-15T00:43:00.378Z,887.2
2022-11-15T00:44:00.544Z,887.2
2022-11-15T00:45:00.407Z,887.2
2022-11-15T00:46:00.433Z,887.3
2022-11-15T00:47:00.400Z,887.3
2022-11-15T00:48:00.402Z,887.3
2022-11-15T00:49:00.432Z,887.3
2022-11-15T00:50:00.692Z,887.3
2022-11-15T00:51:00.415Z,887.3
2022-11-15T00:52:00.421Z,887.2
2022-11-15T00:53:00.301Z,887.2
2022-11-15T00:54:00.496Z,887.3
2022-11-15T00:55:00.349Z,887.3
2022-11-15T00:56:00.396Z,887.2
2022-11-15T00:57:00.396Z,887.2
2022-11-15T00:58:00.429Z,887.2
2022-11-15T00:59:00.424Z,887.2
2022-11-15T01:00:00.404Z,887.2
2022-11-15T01:01:00.442Z,887.3
2022-11-15T01:02:00.566Z,887.3
2022-11-15T01:03:00.438Z,887.3
2022-11-15T01:04:01.658Z,887.3
2022-11-15T01:05:00.345Z,887.3
2022-11-15T01:06:00.346Z,887.3
2022-11-15T01:07:00.467Z,887.3
2022-11-15T01:08:00.567Z,887.3
2022-11-15T01:09:00.530Z,887.3
2022-11-15T01:10:00.394Z,887.3
2022-11-15T01:11:00.329Z,887.3
2022-11-15T01:12:00.406Z,887.3
2022-11-15T01:13:00.395Z,887.3
2022-11-15T01:14:00.476Z,887.3
2022-11-15T01:15:00.334Z,887.3
2022-11-15T01:16:00.282Z,887.3
2022-11-15T01:17:00.281Z,887.3
2022-11-15T01:18:00.298Z,887.3
2022-11-15T01:19:00.319Z,887.3
2022-11-15T01:20:00.414Z,887.3
2022-11-15T01:21:00.340Z,887.3
2022-11-15T01:22:00.280Z,887.3
2022-11-15T01:23:00.280Z,887.4
2022-11-15T01:24:00.466Z,887.4
2022-11-15T01:25:00.321Z,887.3
2022-11-15T01:26:00.527Z,887.4
2022-11-15T01:27:00.341Z,887.4
2022-11-15T01:28:00.283Z,887.4
2022-11-15T01:29:00.359Z,887.4
2022-11-15T01:30:00.291Z,887.4
2022-11-15T01:31:00.304Z,887.4
2022-11-15T01:32:00.719Z,887.4
2022-11-15T01:33:00.312Z,887.4
2022-11-15T01:34:00.340Z,887.4
2022-11-15T01:35:00.305Z,887.4
2022-11-15T01:36:00.331Z,887.4
2022-11-15T01:37:00.310Z,887.5
2022-11-15T01:38:00.459Z,887.4
2022-11-15T01:39:00.360Z,887.4
2022-11-15T01:40:00.395Z,887.4
2022-11-15T01:41:00.438Z,887.4
2022-11-15T01:42:00.377Z,887.5
2022-11-15T01:43:00.367Z,887.5
2022-11-15T01:44:00.418Z,887.5
2022-11-15T01:45:00.356Z,887.5
2022-11-15T01:46:00.370Z,887.5
2022-11-15T01:47:00.340Z,887.4
2022-11-15T01:48:00.384Z,887.4
2022-11-15T01:49:00.340Z,887.4
2022-11-15T01:50:00.492Z,887.5
2022-11-15T01:51:00.320Z,887.4
2022-11-15T01:52:00.334Z,887.4
2022-11-15T01:53:00.386Z,887.5
2022-11-15T01:54:00.520Z,887.5
2022-11-15T01:55:00.388Z,887.5
2022-11-15T01:56:00.455Z,887.5
2022-11-15T01:57:00.303Z,887.5
2022-11-15T01:58:00.325Z,887.5
2022-11-15T01:59:00.304Z,887.5
2022-11-15T02:00:00.332Z,887.5
2022-11-15T02:01:00.400Z,887.5
2022-11-15T02:02:00.522Z,887.5
2022-11-15T02:03:00.295Z,887.5
2022-11-15T02:04:00.320Z,887.5
2022-11-15T02:05:00.330Z,887.5
2022-11-15T02:06:00.336Z,887.6
2022-11-15T02:07:00.346Z,887.6
2022-11-15T02:08:00.585Z,887.6
2022-11-15T02:09:00.397Z,887.6
2022-11-15T02:10:00.372Z,887.6
2022-11-15T02:11:00.364Z,887.6
2022-11-15T02:12:00.282Z,887.6
2022-11-15T02:13:00.298Z,887.6
2022-11-15T02:14:00.471Z,887.6
2022-11-15T02:15:00.308Z,887.6
2022-11-15T02:16:02.969Z,887.6
2022-11-15T02:17:00.279Z,887.6
2022-11-15T02:18:00.326Z,887.7
2022-11-15T02:19:00.310Z,887.6
2022-11-15T02:20:00.540Z,887.7
2022-11-15T02:21:00.368Z,887.7
2022-11-15T02:22:00.365Z,887.6
2022-11-15T02:23:00.305Z,887.7
2022-11-15T02:24:00.501Z,887.7
2022-11-15T02:25:00.316Z,887.7
2022-11-15T02:26:00.471Z,887.7
2022-11-15T02:27:00.330Z,887.8
2022-11-15T02:28:00.298Z,887.7
2022-11-15T02:29:00.303Z,887.7
2022-11-15T02:30:00.318Z,887.8
2022-11-15T02:31:00.284Z,887.8
2022-11-15T02:32:00.440Z,887.7
2022-11-15T02:33:00.287Z,887.8
2022-11-15T02:34:00.327Z,887.8
2022-11-15T02:35:00.308Z,887.8
2022-11-15T02:36:00.295Z,887.8
2022-11-15T02:37:00.287Z,887.8
2022-11-15T02:38:00.553Z,887.8
2022-11-15T02:39:00.394Z,887.8
2022-11-15T02:40:00.284Z,887.8
2022-11-15T02:41:00.305Z,887.9
2022-11-15T02:42:00.344Z,887.9
2022-11-15T02:43:04.375Z,887.9
2022-11-15T02:44:00.547Z,887.9
2022-11-15T02:45:00.319Z,887.9
2022-11-15T02:46:00.347Z,887.9
2022-11-15T02:47:00.317Z,887.9
2022-11-15T02:48:00.333Z,887.9
2022-11-15T02:49:00.326Z,887.9
2022-11-15T02:50:00.488Z,887.9
2022-11-15T02:51:00.280Z,888.0
2022-11-15T02:52:00.312Z,887.9
2022-11-15T02:53:00.304Z,887.9
2022-11-15T02:54:00.461Z,887.9
2022-11-15T02:55:00.281Z,888.0
2022-11-15T02:56:00.537Z,888.0
2022-11-15T02:57:00.324Z,888.0
2022-11-15T02:58:00.320Z,888.0
2022-11-15T02:59:00.326Z,888.0
2022-11-15T03:00:00.349Z,888.0
2022-11-15T03:01:00.393Z,888.0
2022-11-15T03:02:00.444Z,888.0
2022-11-15T03:03:00.321Z,888.0
2022-11-15T03:04:00.294Z,888.0
2022-11-15T03:05:00.333Z,888.1
2022-11-15T03:06:00.280Z,888.1
2022-11-15T03:07:00.512Z,888.1
2022-11-15T03:08:02.463Z,888.1
2022-11-15T03:09:00.360Z,888.1
2022-11-15T03:10:00.416Z,888.1
2022-11-15T03:11:00.400Z,888.1
2022-11-15T03:12:00.350Z,888.1
2022-11-15T03:13:00.338Z,888.2
2022-11-15T03:14:00.499Z,888.1
2022-11-15T03:15:00.296Z,888.1
2022-11-15T03:16:00.322Z,888.1
2022-11-15T03:17:00.291Z,888.1
2022-11-15T03:18:00.299Z,888.1
2022-11-15T03:19:00.279Z,888.1
2022-11-15T03:20:00.485Z,888.1
2022-11-15T03:21:00.295Z,888.1
2022-11-15T03:22:00.298Z,888.1
2022-11-15T03:23:00.298Z,888.1
2022-11-15T03:24:00.324Z,888.1
2022-11-15T03:25:00.444Z,888.1
2022-11-15T03:26:00.525Z,888.1
2022-11-15T03:27:00.321Z,888.1
2022-11-15T03:28:00.297Z,888.2
2022-11-15T03:29:00.287Z,888.2
2022-11-15T03:30:00.320Z,888.2
2022-11-15T03:31:00.365Z,888.2
2022-11-15T03:32:00.570Z,888.2
2022-11-15T03:33:00.312Z,888.2
2022-11-15T03:34:00.305Z,888.2
2022-11-15T03:35:00.296Z,888.2
2022-11-15T03:36:00.284Z,888.2
2022-11-15T03:37:00.330Z,888.2
2022-11-15T03:38:00.617Z,888.2
2022-11-15T03:39:00.311Z,888.2
2022-11-15T03:40:00.559Z,888.2
2022-11-15T03:41:00.296Z,888.2
2022-11-15T03:42:00.378Z,888.2
2022-11-15T03:43:00.319Z,888.2
2022-11-15T03:44:00.479Z,888.2
2022-11-15T03:45:00.313Z,888.2
2022-11-15T03:46:00.326Z,888.2
2022-11-15T03:47:00.323Z,888.2
2022-11-15T03:48:00.308Z,888.2
2022-11-15T03:49:00.317Z,888.2
2022-11-15T03:50:00.562Z,888.2
2022-11-15T03:51:00.300Z,888.3
2022-11-15T03:52:00.305Z,888.3
2022-11-15T03:53:00.300Z,888.3
2022-11-15T03:54:00.352Z,888.3
2022-11-15T03:55:00.329Z,888.3
2022-11-15T03:56:00.422Z,888.4
2022-11-15T03:57:00.284Z,888.4
2022-11-15T03:58:00.356Z,888.4
2022-11-15T03:59:00.303Z,888.4
2022-11-15T04:00:00.319Z,888.4
2022-11-15T04:01:00.341Z,888.4
2022-11-15T04:02:00.431Z,888.4
2022-11-15T04:03:00.289Z,888.4
2022-11-15T04:04:00.320Z,888.4
2022-11-15T04:05:00.329Z,888.4
2022-11-15T04:06:00.298Z,888.4
2022-11-15T04:07:00.423Z,888.5
2022-11-15T04:08:00.492Z,888.5
2022-11-15T04:09:00.346Z,888.5
2022-11-15T04:10:00.362Z,888.5
2022-11-15T04:11:02.346Z,888.5
2022-11-15T04:12:00.284Z,888.5
2022-11-15T04:13:00.309Z,888.5
2022-11-15T04:14:00.511Z,888.5
2022-11-15T04:15:00.368Z,888.5
2022-11-15T04:16:00.325Z,888.5
2022-11-15T04:17:00.315Z,888.5
2022-11-15T04:18:00.304Z,888.5
2022-11-15T04:19:00.293Z,888.6
2022-11-15T04:20:00.468Z,888.5
2022-11-15T04:21:00.446Z,888.5
2022-11-15T04:22:00.321Z,888.6
2022-11-15T04:23:00.364Z,888.6
2022-11-15T04:24:00.389Z,888.6
2022-11-15T04:25:00.498Z,888.6
2022-11-15T04:26:00.531Z,888.6
2022-11-15T04:27:00.307Z,888.7
2022-11-15T04:28:00.279Z,888.7
2022-11-15T04:29:00.295Z,888.7
2022-11-15T04:30:00.322Z,888.7
2022-11-15T04:31:00.329Z,888.8
2022-11-15T04:32:00.460Z,888.8
2022-11-15T04:33:00.327Z,888.8
2022-11-15T04:34:00.328Z,888.8
2022-11-15T04:35:00.344Z,888.8
2022-11-15T04:36:00.288Z,888.8
2022-11-15T04:37:00.317Z,888.8
2022-11-15T04:38:00.611Z,888.8
2022-11-15T04:39:00.350Z,888.8
2022-11-15T04:40:00.465Z,888.8
2022-11-15T04:41:00.302Z,888.8
2022-11-15T04:42:00.306Z,888.9
2022-11-15T04:43:03.863Z,888.9
2022-11-15T04:44:00.542Z,888.9
2022-11-15T04:45:00.348Z,888.9
2022-11-15T04:46:00.294Z,888.9
2022-11-15T04:47:00.298Z,888.9
2022-11-15T04:48:00.307Z,888.9
2022-11-15T04:49:00.284Z,888.9
2022-11-15T04:50:00.455Z,889.0
2022-11-15T04:51:00.302Z,889.0
2022-11-15T04:52:00.295Z,888.9
2022-11-15T04:53:00.312Z,889.0
2022-11-15T04:54:00.347Z,888.9
2022-11-15T04:55:05.145Z,889.0
2022-11-15T04:56:00.365Z,888.9
2022-11-15T04:57:00.288Z,889.0
2022-11-15T04:58:00.278Z,888.9
2022-11-15T04:59:00.350Z,888.9
2022-11-15T05:00:00.375Z,888.9
2022-11-15T05:01:00.377Z,888.9
2022-11-15T05:02:00.454Z,888.9
2022-11-15T05:03:00.294Z,888.9
2022-11-15T05:04:00.338Z,888.9
2022-11-15T05:05:00.352Z,888.9
2022-11-15T05:06:00.386Z,888.9
2022-11-15T05:07:00.321Z,888.9
2022-11-15T05:08:00.444Z,889.0
2022-11-15T05:09:00.311Z,888.9
2022-11-15T05:10:00.428Z,888.9
2022-11-15T05:11:00.342Z,888.9
2022-11-15T05:12:00.319Z,889.0
2022-11-15T05:13:00.330Z,889.0
2022-11-15T05:14:00.538Z,888.9
2022-11-15T05:15:00.283Z,889.0
2022-11-15T05:16:00.287Z,889.0
2022-11-15T05:17:00.394Z,889.0
2022-11-15T05:18:00.282Z,889.0
2022-11-15T05:19:00.362Z,888.9
2022-11-15T05:20:00.488Z,889.0
2022-11-15T05:21:00.344Z,889.0
2022-11-15T05:22:00.321Z,889.0
2022-11-15T05:23:00.300Z,889.0
2022-11-15T05:24:00.282Z,889.0
2022-11-15T05:25:00.421Z,889.0
2022-11-15T05:26:02.897Z,889.0
2022-11-15T05:27:00.291Z,889.0
2022-11-15T05:28:00.321Z,889.0
2022-11-15T05:29:00.340Z,889.0
2022-11-15T05:30:00.281Z,889.0
2022-11-15T05:31:00.320Z,889.0
2022-11-15T05:32:00.406Z,889.0
2022-11-15T05:33:00.319Z,889.0
2022-11-15T05:34:00.956Z,888.9
2022-11-15T05:35:00.326Z,888.9
2022-11-15T05:36:00.363Z,888.9
2022-11-15T05:37:00.324Z,888.9
2022-11-15T05:38:00.424Z,888.9
2022-11-15T05:39:00.403Z,888.9
2022-11-15T05:40:00.348Z,889.0
2022-11-15T05:41:00.315Z,888.9
2022-11-15T05:42:00.587Z,889.0
2022-11-15T05:43:00.315Z,889.0
2022-11-15T05:44:00.389Z,889.0
2022-11-15T05:45:00.330Z,889.0
2022-11-15T05:46:00.285Z,889.0
2022-11-15T05:47:00.289Z,889.0
2022-11-15T05:48:00.301Z,889.0
2022-11-15T05:49:00.397Z,889.0
2022-11-15T05:50:00.578Z,888.9
2022-11-15T05:51:00.373Z,889.0
2022-11-15T05:52:00.287Z,889.0
2022-11-15T05:53:04.942Z,889.0
2022-11-15T05:54:00.333Z,889.0
2022-11-15T05:55:00.328Z,889.0
2022-11-15T05:56:00.507Z,888.9
2022-11-15T05:57:00.395Z,888.9
2022-11-15T05:58:00.281Z,889.0
2022-11-15T05:59:00.423Z,889.0
2022-11-15T06:00:00.296Z,889.0
2022-11-15T06:01:00.344Z,889.0
2022-11-15T06:02:00.545Z,889.0
2022-11-15T06:03:00.322Z,889.0
2022-11-15T06:04:00.302Z,889.0
2022-11-15T06:05:00.291Z,889.1
2022-11-15T06:06:00.297Z,889.1
2022-11-15T06:07:00.405Z,889.1
2022-11-15T06:08:00.521Z,889.1
2022-11-15T06:09:00.302Z,889.1
2022-11-15T06:10:00.325Z,889.1
2022-11-15T06:11:00.316Z,889.1
2022-11-15T06:12:00.427Z,889.1
2022-11-15T06:13:00.466Z,889.1
2022-11-15T06:14:00.484Z,889.1
2022-11-15T06:15:00.330Z,889.1
2022-11-15T06:16:00.281Z,889.1
2022-11-15T06:17:00.294Z,889.1
2022-11-15T06:18:00.327Z,889.1
2022-11-15T06:19:00.301Z,889.1
2022-11-15T06:20:00.519Z,889.1
2022-11-15T06:21:00.303Z,889.2
2022-11-15T06:22:00.364Z,889.2
2022-11-15T06:23:00.287Z,889.2
2022-11-15T06:24:00.278Z,889.2
2022-11-15T06:25:05.157Z,889.2
2022-11-15T06:26:00.516Z,889.1
2022-11-15T06:27:00.291Z,889.2
2022-11-15T06:28:00.496Z,889.1
2022-11-15T06:29:00.332Z,889.1
2022-11-15T06:30:00.314Z,889.1
2022-11-15T06:31:00.281Z,889.1
2022-11-15T06:32:00.472Z,889.1
2022-11-15T06:33:00.339Z,889.2
2022-11-15T06:34:00.288Z,889.1
2022-11-15T06:35:00.388Z,889.2
2022-11-15T06:36:00.321Z,889.2
2022-11-15T06:37:00.303Z,889.1
2022-11-15T06:38:00.436Z,889.2
2022-11-15T06:39:00.285Z,889.2
2022-11-15T06:40:00.301Z,889.2
2022-11-15T06:41:00.289Z,889.2
2022-11-15T06:42:00.370Z,889.2
2022-11-15T06:43:00.477Z,889.2
2022-11-15T06:44:00.430Z,889.1
2022-11-15T06:45:00.306Z,889.1
2022-11-15T06:46:00.325Z,889.1
2022-11-15T06:47:00.279Z,889.2
2022-11-15T06:48:00.302Z,889.2
2022-11-15T06:49:03.928Z,889.2
2022-11-15T06:50:00.703Z,889.2
2022-11-15T06:51:00.281Z,889.2
2022-11-15T06:52:00.348Z,889.2
2022-11-15T06:53:00.311Z,889.1
2022-11-15T06:54:00.313Z,889.1
2022-11-15T06:55:00.392Z,889.1
2022-11-15T06:56:00.669Z,889.0
2022-11-15T06:57:00.318Z,889.0
2022-11-15T06:58:00.468Z,889.1
2022-11-15T06:59:00.326Z,889.1
2022-11-15T07:00:00.294Z,889.1
2022-11-15T07:01:00.364Z,889.1
2022-11-15T07:02:00.525Z,889.1
2022-11-15T07:03:00.343Z,889.1
2022-11-15T07:04:00.403Z,889.1
2022-11-15T07:05:00.322Z,889.1
2022-11-15T07:06:06.653Z,889.1
2022-11-15T07:07:00.541Z,889.1
2022-11-15T07:08:00.575Z,889.1
2022-11-15T07:09:00.363Z,889.1
2022-11-15T07:10:00.352Z,889.1
2022-11-15T07:11:00.338Z,889.1
2022-11-15T07:12:06.200Z,889.1
2022-11-15T07:13:00.471Z,889.1
2022-11-15T07:14:00.450Z,889.1
2022-11-15T07:15:00.284Z,889.1
2022-11-15T07:16:00.329Z,889.1
2022-11-15T07:17:00.325Z,889.1
2022-11-15T07:18:00.287Z,889.1
2022-11-15T07:19:00.306Z,889.0
2022-11-15T07:20:00.442Z,889.0
2022-11-15T07:21:00.298Z,889.1
2022-11-15T07:22:00.330Z,889.1
2022-11-15T07:23:00.322Z,889.0
2022-11-15T07:24:00.289Z,889.1
2022-11-15T07:25:00.298Z,889.1
2022-11-15T07:26:00.527Z,889.1
2022-11-15T07:27:00.329Z,889.1
2022-11-15T07:28:00.464Z,889.0
2022-11-15T07:29:00.544Z,889.1
2022-11-15T07:30:00.393Z,889.1
2022-11-15T07:31:00.283Z,889.1
2022-11-15T07:32:00.610Z,889.0
2022-11-15T07:33:00.292Z,889.0
2022-11-15T07:34:00.303Z,889.0
2022-11-15T07:35:00.306Z,889.0
2022-11-15T07:36:00.291Z,889.0
2022-11-15T07:37:00.306Z,889.0
2022-11-15T07:38:00.508Z,889.0
2022-11-15T07:39:00.329Z,889.0
2022-11-15T07:40:00.363Z,889.0
2022-11-15T07:41:00.344Z,889.0
2022-11-15T07:42:00.373Z,889.0
2022-11-15T07:43:00.395Z,889.0
2022-11-15T07:44:00.540Z,889.0
2022-11-15T07:45:00.314Z,889.0
2022-11-15T07:46:00.333Z,889.0
2022-11-15T07:47:00.308Z,889.0
2022-11-15T07:48:00.328Z,889.0
2022-11-15T07:49:00.312Z,889.0
2022-11-15T07:50:00.513Z,889.0
2022-11-15T07:51:00.333Z,889.0
2022-11-15T07:52:00.291Z,889.0
2022-11-15T07:53:00.331Z,889.0
2022-11-15T07:54:00.315Z,889.0
2022-11-15T07:55:00.338Z,889.0
2022-11-15T07:56:00.444Z,888.9
2022-11-15T07:57:06.634Z,889.0
2022-11-15T07:58:00.296Z,888.9
2022-11-15T07:59:00.435Z,889.0
2022-11-15T08:00:00.294Z,888.9
2022-11-15T08:01:00.496Z,888.9
2022-11-15T08:02:00.592Z,888.9
2022-11-15T08:03:00.383Z,888.9
2022-11-15T08:04:00.327Z,888.9
2022-11-15T08:05:00.390Z,888.9
2022-11-15T08:06:00.333Z,888.8
2022-11-15T08:07:00.456Z,888.9
2022-11-15T08:08:00.632Z,888.9
2022-11-15T08:09:00.409Z,888.9
2022-11-15T08:10:00.352Z,888.8
2022-11-15T08:11:00.293Z,888.8
2022-11-15T08:12:00.416Z,888.9
2022-11-15T08:13:00.356Z,888.8
2022-11-15T08:14:00.471Z,888.8
2022-11-15T08:15:00.393Z,888.8
2022-11-15T08:16:00.283Z,888.8
2022-11-15T08:17:00.285Z,888.8
2022-11-15T08:18:00.319Z,888.8
2022-11-15T08:19:00.310Z,888.8
2022-11-15T08:20:00.466Z,888.8
2022-11-15T08:21:00.307Z,888.7
2022-11-15T08:22:00.313Z,888.8
2022-11-15T08:23:00.302Z,888.7
2022-11-15T08:24:00.301Z,888.7
2022-11-15T08:25:00.337Z,888.7
2022-11-15T08:26:00.591Z,888.7
2022-11-15T08:27:00.351Z,888.7
2022-11-15T08:28:00.455Z,888.7
2022-11-15T08:29:00.320Z,888.7
2022-11-15T08:30:00.490Z,888.6
2022-11-15T08:31:00.344Z,888.6
2022-11-15T08:32:00.560Z,888.7
2022-11-15T08:33:00.389Z,888.6
2022-11-15T08:34:00.368Z,888.6
2022-11-15T08:35:00.299Z,888.6
2022-11-15T08:36:00.378Z,888.6
2022-11-15T08:37:00.349Z,888.6
2022-11-15T08:38:00.530Z,888.6
2022-11-15T08:39:00.288Z,888.6
2022-11-15T08:40:00.413Z,888.6
2022-11-15T08:41:00.363Z,888.6
2022-11-15T08:42:00.394Z,888.5
2022-11-15T08:43:00.314Z,888.5
2022-11-15T08:44:00.594Z,888.5
2022-11-15T08:45:00.498Z,888.5
2022-11-15T08:46:00.561Z,888.5
2022-11-15T08:47:00.316Z,888.5
2022-11-15T08:48:00.329Z,888.4
2022-11-15T08:49:00.292Z,888.4
2022-11-15T08:50:00.466Z,888.4
2022-11-15T08:51:00.313Z,888.4
2022-11-15T08:52:00.322Z,888.4
2022-11-15T08:53:00.316Z,888.4
2022-11-15T08:54:00.285Z,888.4
2022-11-15T08:55:00.320Z,888.4
2022-11-15T08:56:00.438Z,888.3
2022-11-15T08:57:00.317Z,888.3
2022-11-15T08:58:00.342Z,888.3
2022-11-15T08:59:00.287Z,888.3
2022-11-15T09:00:00.317Z,888.3
2022-11-15T09:01:00.464Z,888.3
2022-11-15T09:02:00.551Z,888.3
2022-11-15T09:03:00.329Z,888.3
2022-11-15T09:04:00.292Z,888.3
2022-11-15T09:05:00.331Z,888.3
2022-11-15T09:06:00.328Z,888.3
2022-11-15T09:07:00.380Z,888.2
2022-11-15T09:08:00.844Z,888.2
2022-11-15T09:09:00.321Z,888.2
2022-11-15T09:10:00.352Z,888.2
2022-11-15T09:11:00.337Z,888.2
2022-11-15T09:12:02.729Z,888.2
2022-11-15T09:13:00.367Z,888.2
2022-11-15T09:14:00.495Z,888.1
2022-11-15T09:15:00.399Z,888.1
2022-11-15T09:16:00.429Z,888.1
2022-11-15T09:17:00.281Z,888.1
2022-11-15T09:18:00.333Z,888.1
2022-11-15T09:19:00.386Z,888.1
2022-11-15T09:20:00.403Z,888.1
2022-11-15T09:21:00.346Z,888.0
2022-11-15T09:22:00.321Z,888.1
2022-11-15T09:23:00.313Z,888.0
2022-11-15T09:24:00.291Z,888.0
2022-11-15T09:25:00.292Z,888.0
2022-11-15T09:26:00.426Z,888.0
2022-11-15T09:30:00.308Z,888.0
2022-11-15T09:31:00.435Z,888.0
2022-11-15T09:32:00.460Z,888.0
2022-11-15T09:33:00.285Z,887.9
2022-11-15T09:34:00.298Z,887.9
2022-11-15T09:35:00.332Z,887.9
2022-11-15T09:36:00.283Z,887.9
2022-11-15T09:37:00.298Z,887.9
2022-11-15T09:38:00.437Z,887.9
2022-11-15T09:39:00.304Z,887.9
2022-11-15T09:40:00.303Z,887.9
2022-11-15T09:41:00.320Z,887.9
2022-11-15T09:42:00.298Z,887.9
2022-11-15T09:43:00.318Z,887.8
2022-11-15T09:44:00.453Z,887.9
2022-11-15T09:45:00.305Z,887.8
2022-11-15T09:46:00.345Z,887.8
2022-11-15T09:47:00.445Z,887.8
2022-11-15T09:48:00.551Z,887.8
2022-11-15T09:49:00.375Z,887.8
2022-11-15T09:50:00.394Z,887.8
2022-11-15T09:51:00.347Z,887.8
2022-11-15T09:52:00.354Z,887.8
2022-11-15T09:53:00.401Z,887.8
2022-11-15T09:54:51.003Z,887.8
2022-11-15T09:55:00.364Z,887.8
2022-11-15T09:56:00.574Z,887.8
2022-11-15T09:57:00.363Z,887.7
2022-11-15T09:58:00.315Z,887.7
2022-11-15T09:59:00.282Z,887.7
2022-11-15T10:00:12.276Z,887.7
2022-11-15T10:01:00.350Z,887.7
2022-11-15T10:02:00.582Z,887.7
2022-11-15T10:03:00.533Z,887.7
2022-11-15T10:04:00.356Z,887.6
2022-11-15T10:05:00.283Z,887.6
2022-11-15T10:06:00.325Z,887.6
2022-11-15T10:07:00.365Z,887.6
2022-11-15T10:08:00.530Z,887.6
2022-11-15T10:09:00.292Z,887.6
2022-11-15T10:10:00.322Z,887.6
2022-11-15T10:11:30.675Z,887.6
2022-11-15T10:12:00.306Z,887.6
2022-11-15T10:13:00.348Z,887.6
2022-11-15T10:14:00.531Z,887.6
2022-11-15T10:15:00.328Z,887.6
2022-11-15T10:16:00.327Z,887.5
2022-11-15T10:17:00.324Z,887.5
2022-11-15T10:18:00.446Z,887.5
2022-11-15T10:19:00.300Z,887.5
2022-11-15T10:20:05.418Z,887.5
2022-11-15T10:21:00.368Z,887.5
2022-11-15T10:22:00.350Z,887.5
2022-11-15T10:23:00.355Z,887.5
2022-11-15T10:24:00.370Z,887.5
2022-11-15T10:25:00.278Z,887.5
2022-11-15T10:26:06.464Z,887.4
2022-11-15T10:27:00.313Z,887.5
2022-11-15T10:28:00.333Z,887.4
2022-11-15T10:29:00.307Z,887.4
2022-11-15T10:30:00.303Z,887.4
2022-11-15T10:31:00.327Z,887.4
2022-11-15T10:32:00.453Z,887.4
2022-11-15T10:33:00.299Z,887.3
2022-11-15T10:34:00.447Z,887.3
2022-11-15T10:35:00.285Z,887.4
2022-11-15T10:36:00.320Z,887.4
2022-11-15T10:37:00.305Z,887.3
2022-11-15T10:38:00.610Z,887.3
2022-11-15T10:39:00.322Z,887.3
2022-11-15T10:42:02.746Z,887.3
2022-11-15T10:43:00.307Z,887.3
2022-11-15T10:44:00.403Z,887.3
2022-11-15T10:45:00.308Z,887.3
2022-11-15T10:46:13.564Z,887.3
2022-11-15T10:47:00.312Z,887.3
2022-11-15T10:48:00.291Z,887.3
2022-11-15T10:49:00.647Z,887.3
2022-11-15T10:50:00.688Z,887.3
2022-11-15T10:51:00.355Z,887.3
2022-11-15T10:52:00.284Z,887.3
2022-11-15T10:53:00.331Z,887.3
2022-11-15T10:54:00.331Z,887.3
2022-11-15T10:55:00.324Z,887.3
2022-11-15T10:56:00.537Z,887.2
2022-11-15T10:57:00.385Z,887.3
2022-11-15T10:58:00.353Z,887.3
2022-11-15T10:59:00.299Z,887.3
2022-11-15T11:00:00.326Z,887.3
2022-11-15T11:01:00.389Z,887.3
2022-11-15T11:02:00.518Z,887.3
2022-11-15T11:03:00.301Z,887.3
2022-11-15T11:04:00.473Z,887.3
2022-11-15T11:05:00.306Z,887.3
2022-11-15T11:06:00.281Z,887.3
2022-11-15T11:07:00.330Z,887.3
2022-11-15T11:08:00.524Z,887.3
2022-11-15T11:09:00.304Z,887.3
2022-11-15T11:10:00.282Z,887.3
2022-11-15T11:11:03.240Z,887.3
2022-11-15T11:12:00.293Z,887.3
2022-11-15T11:13:00.305Z,887.3
2022-11-15T11:14:00.578Z,887.3
2022-11-15T11:15:00.313Z,887.2
2022-11-15T11:16:00.303Z,887.3
2022-11-15T11:17:00.279Z,887.2
2022-11-15T11:18:00.297Z,887.2
2022-11-15T11:19:00.488Z,887.2
2022-11-15T11:20:00.454Z,887.2
2022-11-15T11:21:00.303Z,887.2
2022-11-15T11:22:00.329Z,887.2
2022-11-15T11:23:00.324Z,887.2
2022-11-15T11:24:00.296Z,887.2
2022-11-15T11:25:00.367Z,887.2
2022-11-15T11:26:00.540Z,887.2
2022-11-15T11:27:00.361Z,887.2
2022-11-15T11:28:00.329Z,887.2
2022-11-15T11:29:00.279Z,887.2
2022-11-15T11:30:00.341Z,887.2
2022-11-15T11:31:00.373Z,887.2
2022-11-15T11:32:00.451Z,887.2
2022-11-15T11:33:00.359Z,887.2
2022-11-15T11:34:00.472Z,887.2
2022-11-15T11:35:00.372Z,887.2
2022-11-15T11:36:00.389Z,887.2
2022-11-15T11:37:00.320Z,887.3
2022-11-15T11:38:00.434Z,887.2
2022-11-15T11:39:00.345Z,887.2
2022-11-15T11:40:00.369Z,887.2
2022-11-15T11:41:00.334Z,887.2
2022-11-15T11:42:00.305Z,887.2
2022-11-15T11:43:00.554Z,887.2
2022-11-15T11:44:00.435Z,887.3
2022-11-15T11:45:00.294Z,887.3
2022-11-15T11:46:00.349Z,887.2
2022-11-15T11:47:00.421Z,887.2
2022-11-15T11:48:00.333Z,887.2
2022-11-15T11:49:00.623Z,887.3
2022-11-15T11:50:00.982Z,887.3
2022-11-15T11:51:00.604Z,887.3
2022-11-15T11:52:00.600Z,887.2
2022-11-15T11:53:03.908Z,887.2
2022-11-15T11:54:00.574Z,887.2
2022-11-15T11:55:00.596Z,887.2
2022-11-15T11:56:00.768Z,887.2
2022-11-15T11:57:00.582Z,887.2
2022-11-15T11:59:00.539Z,887.2
2022-11-15T12:00:00.571Z,887.2
2022-11-15T12:01:00.585Z,887.2
2022-11-15T12:02:02.162Z,887.2
2022-11-15T12:03:00.901Z,887.1
2022-11-15T12:04:00.785Z,887.2
2022-11-15T12:05:00.561Z,887.2
2022-11-15T12:06:01.986Z,887.2
2022-11-15T12:07:00.646Z,887.2
2022-11-15T12:08:04.113Z,887.2
2022-11-15T12:09:00.581Z,887.2
2022-11-15T12:10:00.903Z,887.2
2022-11-15T12:11:01.125Z,887.2
2022-11-15T12:12:00.331Z,887.2
2022-11-15T12:13:01.094Z,887.2
2022-11-15T12:14:01.018Z,887.3
2022-11-15T12:15:00.530Z,887.2
2022-11-15T12:16:00.505Z,887.2
2022-11-15T12:17:00.478Z,887.2
2022-11-15T12:18:00.444Z,887.2
2022-11-15T12:19:00.901Z,887.2
2022-11-15T12:20:01.365Z,887.2
2022-11-15T12:21:00.602Z,887.2
2022-11-15T12:22:00.637Z,887.2
2022-11-15T12:23:00.515Z,887.2
2022-11-15T12:24:00.614Z,887.3
2022-11-15T12:25:00.575Z,887.2
2022-11-15T12:26:01.316Z,887.2
2022-11-15T12:27:00.556Z,887.2
2022-11-15T12:28:00.537Z,887.2
2022-11-15T12:29:08.772Z,887.2
2022-11-15T12:30:00.658Z,887.2
2022-11-15T12:31:00.578Z,887.2
2022-11-15T12:32:00.827Z,887.2
2022-11-15T12:33:00.544Z,887.2
2022-11-15T12:34:06.881Z,887.2
2022-11-15T12:35:00.576Z,887.2
2022-11-15T12:36:00.566Z,887.2
2022-11-15T12:37:01.122Z,887.2
2022-11-15T12:38:00.784Z,887.1
2022-11-15T12:39:00.547Z,887.2
2022-11-15T12:40:04.128Z,887.2
2022-11-15T12:41:00.588Z,887.2
2022-11-15T12:42:00.512Z,887.2
2022-11-15T12:43:00.623Z,887.2
2022-11-15T12:44:00.749Z,887.1
2022-11-15T12:45:00.556Z,887.1
2022-11-15T12:46:00.523Z,887.2
2022-11-15T12:47:00.558Z,887.1
2022-11-15T12:48:00.541Z,887.2
2022-11-15T12:49:00.997Z,887.2
2022-11-15T12:50:00.709Z,887.2
2022-11-15T12:51:00.531Z,887.2
2022-11-15T12:52:00.623Z,887.1
2022-11-15T12:53:00.586Z,887.2
2022-11-15T12:54:00.599Z,887.1
2022-11-15T12:55:00.588Z,887.1
2022-11-15T12:56:00.875Z,887.2
2022-11-15T12:57:00.607Z,887.2
2022-11-15T12:58:00.538Z,887.1